PWSweather.com
Personal Weather Stations
Station Observations
WXGLH1124
Southern Oaks, Indianapolis, IN 46217

Southern OaksIndianapolis, IN 46217

Lat: 39.65113, Lon: -86.16866

Elevation: 720

Station Type: Vantage Pro2

High Low Average
Temperature 45.2°F7.3°C 16.2°F-8.8°C 30.9°F-0.6°C
Dew Point 36.8°F2.7°C 9.1°F-12.7°C 24.5°F-4.2°C
Winds 16.0 mph 25.7 kmh Calm Calm 6.0 mph SW9.7 kmh SW
Wind Gusts 21.0 mph33.8 kmh 2.0 mph3.2 kmh 11.0 mph17.7 kmh
Humidity 91% 66% 77%
Pressure 30.06 in1017.9 mb 29.67 in1004.7 mb -
Precipitation 0.00 in0.0 mm - -
Hour Temp Dew Point Humidity Winds Wind Gusts Pressure Precip Precip Rate Daily Precip Total
12:00 AM 21.3°F-5.9°C 14.0°F-10.0°C 73% Calm Calm 3.0 mph4.8 kmh 30.07 in1018.3 mb 0.00 in0.0 mm 0.00 in0.0 mm 0.00 in0.0 mm
12:05 AM 21.4°F-5.9°C 14.1°F-9.9°C 73% 1.0 mph S1.6 kmh S 4.0 mph6.4 kmh 30.07 in1018.3 mb 0.00 in0.0 mm 0.00 in0.0 mm 0.00 in0.0 mm
12:09 AM 21.4°F-5.9°C 14.1°F-9.9°C 73% 2.0 mph SE3.2 kmh SE 4.0 mph6.4 kmh 30.07 in1018.3 mb 0.00 in0.0 mm 0.00 in0.0 mm 0.00 in0.0 mm
12:15 AM 21.5°F-5.8°C 14.2°F-9.9°C 73% 1.0 mph SSE1.6 kmh SSE 5.0 mph8.0 kmh 30.07 in1018.3 mb 0.00 in0.0 mm 0.00 in0.0 mm 0.00 in0.0 mm
12:20 AM 21.6°F-5.8°C 14.3°F-9.8°C 73% Calm Calm 5.0 mph8.0 kmh 30.07 in1018.3 mb 0.00 in0.0 mm 0.00 in0.0 mm 0.00 in0.0 mm
12:24 AM 21.7°F-5.7°C 14.4°F-9.8°C 73% 1.0 mph SSE1.6 kmh SSE 4.0 mph6.4 kmh 30.07 in1018.3 mb 0.00 in0.0 mm 0.00 in0.0 mm 0.00 in0.0 mm
12:30 AM 21.8°F-5.7°C 14.8°F-9.6°C 74% 1.0 mph SE1.6 kmh SE 5.0 mph8.0 kmh 30.08 in1018.6 mb 0.00 in0.0 mm 0.00 in0.0 mm 0.00 in0.0 mm
12:35 AM 21.9°F-5.6°C 14.9°F-9.5°C 74% Calm Calm -- 30.08 in1018.6 mb 0.00 in0.0 mm 0.00 in0.0 mm 0.00 in0.0 mm
12:40 AM 21.9°F-5.6°C 14.9°F-9.5°C 74% Calm Calm -- 30.08 in1018.6 mb 0.00 in0.0 mm 0.00 in0.0 mm 0.00 in0.0 mm
12:45 AM 22.1°F-5.5°C 15.1°F-9.4°C 74% Calm Calm -- 30.08 in1018.6 mb 0.00 in0.0 mm 0.00 in0.0 mm 0.00 in0.0 mm
12:49 AM 22.1°F-5.5°C 15.1°F-9.4°C 74% Calm Calm -- 30.08 in1018.6 mb 0.00 in0.0 mm 0.00 in0.0 mm 0.00 in0.0 mm
12:54 AM 22.2°F-5.4°C 15.2°F-9.3°C 74% Calm Calm 2.0 mph3.2 kmh 30.07 in1018.3 mb 0.00 in0.0 mm 0.00 in0.0 mm 0.00 in0.0 mm
01:00 AM 22.2°F-5.4°C 15.5°F-9.2°C 75% Calm Calm 2.0 mph3.2 kmh 30.06 in1017.9 mb 0.00 in0.0 mm 0.00 in0.0 mm 0.00 in0.0 mm
01:05 AM 22.3°F-5.4°C 15.6°F-9.1°C 75% 2.0 mph SE3.2 kmh SE 2.0 mph3.2 kmh 30.05 in1017.6 mb 0.00 in0.0 mm 0.00 in0.0 mm 0.00 in0.0 mm
01:10 AM 22.3°F-5.4°C 15.6°F-9.1°C 75% 1.0 mph SE1.6 kmh SE 4.0 mph6.4 kmh 30.05 in1017.6 mb 0.00 in0.0 mm 0.00 in0.0 mm 0.00 in0.0 mm
01:15 AM 22.3°F-5.4°C 15.6°F-9.1°C 75% 4.0 mph SSE6.4 kmh SSE 4.0 mph6.4 kmh 30.04 in1017.3 mb 0.00 in0.0 mm 0.00 in0.0 mm 0.00 in0.0 mm
01:20 AM 22.3°F-5.4°C 15.6°F-9.1°C 75% 2.0 mph SE3.2 kmh SE 4.0 mph6.4 kmh 30.04 in1017.3 mb 0.00 in0.0 mm 0.00 in0.0 mm 0.00 in0.0 mm
01:25 AM 22.3°F-5.4°C 15.9°F-8.9°C 76% 4.0 mph SE6.4 kmh SE 4.0 mph6.4 kmh 30.03 in1016.9 mb 0.00 in0.0 mm 0.00 in0.0 mm 0.00 in0.0 mm
01:29 AM 22.4°F-5.3°C 16.0°F-8.9°C 76% Calm Calm 5.0 mph8.0 kmh 30.03 in1016.9 mb 0.00 in0.0 mm 0.00 in0.0 mm 0.00 in0.0 mm
01:35 AM 22.4°F-5.3°C 16.0°F-8.9°C 76% 1.0 mph SE1.6 kmh SE 8.0 mph12.9 kmh 30.03 in1016.9 mb 0.00 in0.0 mm 0.00 in0.0 mm 0.00 in0.0 mm
01:40 AM 22.5°F-5.3°C 16.1°F-8.8°C 76% 1.0 mph SE1.6 kmh SE 4.0 mph6.4 kmh 30.03 in1016.9 mb 0.00 in0.0 mm 0.00 in0.0 mm 0.00 in0.0 mm
01:45 AM 22.6°F-5.2°C 16.2°F-8.8°C 76% Calm Calm 5.0 mph8.0 kmh 30.03 in1016.9 mb 0.00 in0.0 mm 0.00 in0.0 mm 0.00 in0.0 mm
01:50 AM 22.7°F-5.2°C 16.3°F-8.7°C 76% 2.0 mph SE3.2 kmh SE 2.0 mph3.2 kmh 30.02 in1016.6 mb 0.00 in0.0 mm 0.00 in0.0 mm 0.00 in0.0 mm
01:55 AM 22.7°F-5.2°C 16.3°F-8.7°C 76% 2.0 mph SE3.2 kmh SE 3.0 mph4.8 kmh 30.02 in1016.6 mb 0.00 in0.0 mm 0.00 in0.0 mm 0.00 in0.0 mm
02:00 AM 22.8°F-5.1°C 16.4°F-8.7°C 76% Calm Calm 4.0 mph6.4 kmh 30.01 in1016.3 mb 0.00 in0.0 mm 0.00 in0.0 mm 0.00 in0.0 mm
02:05 AM 22.9°F-5.1°C 16.5°F-8.6°C 76% 2.0 mph SE3.2 kmh SE 4.0 mph6.4 kmh 30.01 in1016.3 mb 0.00 in0.0 mm 0.00 in0.0 mm 0.00 in0.0 mm
02:10 AM 23.0°F-5.0°C 16.6°F-8.6°C 76% 1.0 mph SE1.6 kmh SE 5.0 mph8.0 kmh 30.01 in1016.3 mb 0.00 in0.0 mm 0.00 in0.0 mm 0.00 in0.0 mm
02:15 AM 23.2°F-4.9°C 16.8°F-8.4°C 76% 5.0 mph S8.0 kmh S 7.0 mph11.3 kmh 30.01 in1016.3 mb 0.00 in0.0 mm 0.00 in0.0 mm 0.00 in0.0 mm
02:20 AM 23.3°F-4.8°C 16.9°F-8.4°C 76% Calm Calm 8.0 mph12.9 kmh 30.00 in1015.9 mb 0.00 in0.0 mm 0.00 in0.0 mm 0.00 in0.0 mm
02:25 AM 23.5°F-4.7°C 17.1°F-8.3°C 76% 3.0 mph SE4.8 kmh SE 5.0 mph8.0 kmh 30.00 in1015.9 mb 0.00 in0.0 mm 0.00 in0.0 mm 0.00 in0.0 mm
02:30 AM 23.6°F-4.7°C 16.9°F-8.4°C 75% Calm Calm 8.0 mph12.9 kmh 30.00 in1015.9 mb 0.00 in0.0 mm 0.00 in0.0 mm 0.00 in0.0 mm
02:35 AM 23.7°F-4.6°C 17.3°F-8.2°C 76% 2.0 mph SSE3.2 kmh SSE 4.0 mph6.4 kmh 29.99 in1015.6 mb 0.00 in0.0 mm 0.00 in0.0 mm 0.00 in0.0 mm
02:40 AM 23.8°F-4.6°C 17.4°F-8.1°C 76% 5.0 mph SSE8.0 kmh SSE 7.0 mph11.3 kmh 29.99 in1015.6 mb 0.00 in0.0 mm 0.00 in0.0 mm 0.00 in0.0 mm
02:45 AM 23.9°F-4.5°C 17.1°F-8.3°C 75% 5.0 mph SSE8.0 kmh SSE 6.0 mph9.7 kmh 29.99 in1015.6 mb 0.00 in0.0 mm 0.00 in0.0 mm 0.00 in0.0 mm
02:49 AM 24.0°F-4.4°C 17.6°F-8.0°C 76% 2.0 mph SE3.2 kmh SE 5.0 mph8.0 kmh 29.99 in1015.6 mb 0.00 in0.0 mm 0.00 in0.0 mm 0.00 in0.0 mm
02:55 AM 24.1°F-4.4°C 17.3°F-8.2°C 75% 6.0 mph S9.7 kmh S 9.0 mph14.5 kmh 29.98 in1015.2 mb 0.00 in0.0 mm 0.00 in0.0 mm 0.00 in0.0 mm
03:00 AM 24.3°F-4.3°C 17.8°F-7.9°C 76% 3.0 mph SSE4.8 kmh SSE 8.0 mph12.9 kmh 29.98 in1015.2 mb 0.00 in0.0 mm 0.00 in0.0 mm 0.00 in0.0 mm
03:05 AM 24.4°F-4.2°C 17.6°F-8.0°C 75% 4.0 mph SSE6.4 kmh SSE 8.0 mph12.9 kmh 29.97 in1014.9 mb 0.00 in0.0 mm 0.00 in0.0 mm 0.00 in0.0 mm
03:10 AM 24.6°F-4.1°C 17.8°F-7.9°C 75% 3.0 mph SSE4.8 kmh SSE 7.0 mph11.3 kmh 29.96 in1014.6 mb 0.00 in0.0 mm 0.00 in0.0 mm 0.00 in0.0 mm
03:15 AM 24.7°F-4.1°C 17.9°F-7.8°C 75% 4.0 mph SSE6.4 kmh SSE 8.0 mph12.9 kmh 29.96 in1014.6 mb 0.00 in0.0 mm 0.00 in0.0 mm 0.00 in0.0 mm
03:19 AM 24.9°F-3.9°C 18.1°F-7.7°C 75% 3.0 mph SE4.8 kmh SE 12.0 mph19.3 kmh 29.96 in1014.6 mb 0.00 in0.0 mm 0.00 in0.0 mm 0.00 in0.0 mm
03:25 AM 25.1°F-3.8°C 18.0°F-7.8°C 74% 5.0 mph SSE8.0 kmh SSE 11.0 mph17.7 kmh 29.96 in1014.6 mb 0.00 in0.0 mm 0.00 in0.0 mm 0.00 in0.0 mm
03:29 AM 25.2°F-3.8°C 18.1°F-7.7°C 74% 4.0 mph SSE6.4 kmh SSE 8.0 mph12.9 kmh 29.96 in1014.6 mb 0.00 in0.0 mm 0.00 in0.0 mm 0.00 in0.0 mm
03:35 AM 25.3°F-3.7°C 18.2°F-7.7°C 74% 3.0 mph S4.8 kmh S 8.0 mph12.9 kmh 29.96 in1014.6 mb 0.00 in0.0 mm 0.00 in0.0 mm 0.00 in0.0 mm
03:40 AM 25.4°F-3.7°C 18.0°F-7.8°C 73% 6.0 mph SSE9.7 kmh SSE 10.0 mph16.1 kmh 29.96 in1014.6 mb 0.00 in0.0 mm 0.00 in0.0 mm 0.00 in0.0 mm
03:45 AM 25.6°F-3.6°C 18.2°F-7.7°C 73% 5.0 mph SSE8.0 kmh SSE 6.0 mph9.7 kmh 29.96 in1014.6 mb 0.00 in0.0 mm 0.00 in0.0 mm 0.00 in0.0 mm
03:50 AM 25.6°F-3.6°C 18.2°F-7.7°C 73% 5.0 mph SSE8.0 kmh SSE 6.0 mph9.7 kmh 29.96 in1014.6 mb 0.00 in0.0 mm 0.00 in0.0 mm 0.00 in0.0 mm
03:55 AM 25.7°F-3.5°C 18.3°F-7.6°C 73% 3.0 mph SE4.8 kmh SE 5.0 mph8.0 kmh 29.96 in1014.6 mb 0.00 in0.0 mm 0.00 in0.0 mm 0.00 in0.0 mm
04:00 AM 25.7°F-3.5°C 18.3°F-7.6°C 73% Calm Calm 6.0 mph9.7 kmh 29.96 in1014.6 mb 0.00 in0.0 mm 0.00 in0.0 mm 0.00 in0.0 mm
04:05 AM 25.8°F-3.4°C 18.4°F-7.6°C 73% 4.0 mph SSE6.4 kmh SSE 7.0 mph11.3 kmh 29.96 in1014.6 mb 0.00 in0.0 mm 0.00 in0.0 mm 0.00 in0.0 mm
04:10 AM 25.9°F-3.4°C 18.5°F-7.5°C 73% 2.0 mph S3.2 kmh S 8.0 mph12.9 kmh 29.96 in1014.6 mb 0.00 in0.0 mm 0.00 in0.0 mm 0.00 in0.0 mm
04:15 AM 25.9°F-3.4°C 18.5°F-7.5°C 73% 1.0 mph SSE1.6 kmh SSE 3.0 mph4.8 kmh 29.96 in1014.6 mb 0.00 in0.0 mm 0.00 in0.0 mm 0.00 in0.0 mm
04:20 AM 26.0°F-3.3°C 18.9°F-7.3°C 74% 1.0 mph S1.6 kmh S 7.0 mph11.3 kmh 29.96 in1014.6 mb 0.00 in0.0 mm 0.00 in0.0 mm 0.00 in0.0 mm
04:25 AM 26.1°F-3.3°C 19.0°F-7.2°C 74% 2.0 mph SSE3.2 kmh SSE 5.0 mph8.0 kmh 29.96 in1014.6 mb 0.00 in0.0 mm 0.00 in0.0 mm 0.00 in0.0 mm
04:30 AM 26.2°F-3.2°C 19.1°F-7.2°C 74% 2.0 mph SE3.2 kmh SE 8.0 mph12.9 kmh 29.96 in1014.6 mb 0.00 in0.0 mm 0.00 in0.0 mm 0.00 in0.0 mm
04:35 AM 26.3°F-3.2°C 19.2°F-7.1°C 74% 2.0 mph SSE3.2 kmh SSE 7.0 mph11.3 kmh 29.95 in1014.2 mb 0.00 in0.0 mm 0.00 in0.0 mm 0.00 in0.0 mm
04:40 AM 26.5°F-3.1°C 19.4°F-7.0°C 74% 6.0 mph SSE9.7 kmh SSE 10.0 mph16.1 kmh 29.95 in1014.2 mb 0.00 in0.0 mm 0.00 in0.0 mm 0.00 in0.0 mm
04:45 AM 26.6°F-3.0°C 19.1°F-7.2°C 73% 7.0 mph SSE11.3 kmh SSE 9.0 mph14.5 kmh 29.94 in1013.9 mb 0.00 in0.0 mm 0.00 in0.0 mm 0.00 in0.0 mm
04:50 AM 26.7°F-2.9°C 19.5°F-6.9°C 74% 6.0 mph SSE9.7 kmh SSE 11.0 mph17.7 kmh 29.94 in1013.9 mb 0.00 in0.0 mm 0.00 in0.0 mm 0.00 in0.0 mm
04:55 AM 26.7°F-2.9°C 19.5°F-6.9°C 74% 3.0 mph SSE4.8 kmh SSE 9.0 mph14.5 kmh 29.94 in1013.9 mb 0.00 in0.0 mm 0.00 in0.0 mm 0.00 in0.0 mm
05:00 AM 26.8°F-2.9°C 19.3°F-7.1°C 73% 5.0 mph S8.0 kmh S 9.0 mph14.5 kmh 29.93 in1013.5 mb 0.00 in0.0 mm 0.00 in0.0 mm 0.00 in0.0 mm
05:05 AM 26.8°F-2.9°C 19.6°F-6.9°C 74% 2.0 mph SE3.2 kmh SE 9.0 mph14.5 kmh 29.93 in1013.5 mb 0.00 in0.0 mm 0.00 in0.0 mm 0.00 in0.0 mm
05:10 AM 26.9°F-2.8°C 19.7°F-6.8°C 74% 4.0 mph SE6.4 kmh SE 13.0 mph20.9 kmh 29.92 in1013.2 mb 0.00 in0.0 mm 0.00 in0.0 mm 0.00 in0.0 mm
05:15 AM 26.9°F-2.8°C 19.7°F-6.8°C 74% 8.0 mph SSE12.9 kmh SSE 12.0 mph19.3 kmh 29.92 in1013.2 mb 0.00 in0.0 mm 0.00 in0.0 mm 0.00 in0.0 mm
05:20 AM 27.0°F-2.8°C 19.5°F-6.9°C 73% 4.0 mph SSE6.4 kmh SSE 12.0 mph19.3 kmh 29.92 in1013.2 mb 0.00 in0.0 mm 0.00 in0.0 mm 0.00 in0.0 mm
05:25 AM 27.0°F-2.8°C 19.8°F-6.8°C 74% 9.0 mph S14.5 kmh S 10.0 mph16.1 kmh 29.91 in1012.9 mb 0.00 in0.0 mm 0.00 in0.0 mm 0.00 in0.0 mm
05:30 AM 27.1°F-2.7°C 19.9°F-6.7°C 74% 4.0 mph SE6.4 kmh SE 11.0 mph17.7 kmh 29.91 in1012.9 mb 0.00 in0.0 mm 0.00 in0.0 mm 0.00 in0.0 mm
05:35 AM 27.2°F-2.7°C 20.0°F-6.7°C 74% 9.0 mph S14.5 kmh S 13.0 mph20.9 kmh 29.90 in1012.5 mb 0.00 in0.0 mm 0.00 in0.0 mm 0.00 in0.0 mm
05:40 AM 27.2°F-2.7°C 19.7°F-6.8°C 73% 8.0 mph SE12.9 kmh SE 12.0 mph19.3 kmh 29.90 in1012.5 mb 0.00 in0.0 mm 0.00 in0.0 mm 0.00 in0.0 mm
05:45 AM 27.2°F-2.7°C 20.0°F-6.7°C 74% 11.0 mph S17.7 kmh S 11.0 mph17.7 kmh 29.90 in1012.5 mb 0.00 in0.0 mm 0.00 in0.0 mm 0.00 in0.0 mm
05:50 AM 27.3°F-2.6°C 20.1°F-6.6°C 74% 5.0 mph S8.0 kmh S 10.0 mph16.1 kmh 29.90 in1012.5 mb 0.00 in0.0 mm 0.00 in0.0 mm 0.00 in0.0 mm
05:54 AM 27.4°F-2.6°C 20.2°F-6.6°C 74% 7.0 mph SSE11.3 kmh SSE 9.0 mph14.5 kmh 29.89 in1012.2 mb 0.00 in0.0 mm 0.00 in0.0 mm 0.00 in0.0 mm
05:59 AM 27.5°F-2.5°C 20.3°F-6.5°C 74% 2.0 mph SE3.2 kmh SE 11.0 mph17.7 kmh 29.89 in1012.2 mb 0.00 in0.0 mm 0.00 in0.0 mm 0.00 in0.0 mm
06:05 AM 27.6°F-2.4°C 20.4°F-6.4°C 74% 4.0 mph S6.4 kmh S 11.0 mph17.7 kmh 29.89 in1012.2 mb 0.00 in0.0 mm 0.00 in0.0 mm 0.00 in0.0 mm
06:09 AM 27.6°F-2.4°C 20.4°F-6.4°C 74% 4.0 mph S6.4 kmh S 7.0 mph11.3 kmh 29.89 in1012.2 mb 0.00 in0.0 mm 0.00 in0.0 mm 0.00 in0.0 mm
06:15 AM 27.7°F-2.4°C 20.5°F-6.4°C 74% 7.0 mph SSE11.3 kmh SSE 12.0 mph19.3 kmh 29.88 in1011.9 mb 0.00 in0.0 mm 0.00 in0.0 mm 0.00 in0.0 mm
06:20 AM 27.8°F-2.3°C 20.6°F-6.3°C 74% 6.0 mph S9.7 kmh S 8.0 mph12.9 kmh 29.88 in1011.9 mb 0.00 in0.0 mm 0.00 in0.0 mm 0.00 in0.0 mm
06:24 AM 27.9°F-2.3°C 20.7°F-6.3°C 74% 4.0 mph SSE6.4 kmh SSE 12.0 mph19.3 kmh 29.88 in1011.9 mb 0.00 in0.0 mm 0.00 in0.0 mm 0.00 in0.0 mm
06:30 AM 27.9°F-2.3°C 20.7°F-6.3°C 74% 4.0 mph SSE6.4 kmh SSE 11.0 mph17.7 kmh 29.87 in1011.5 mb 0.00 in0.0 mm 0.00 in0.0 mm 0.00 in0.0 mm
06:35 AM 28.0°F-2.2°C 21.1°F-6.1°C 75% 5.0 mph S8.0 kmh S 10.0 mph16.1 kmh 29.87 in1011.5 mb 0.00 in0.0 mm 0.00 in0.0 mm 0.00 in0.0 mm
06:40 AM 28.1°F-2.2°C 21.2°F-6.0°C 75% 5.0 mph SSE8.0 kmh SSE 8.0 mph12.9 kmh 29.87 in1011.5 mb 0.00 in0.0 mm 0.00 in0.0 mm 0.00 in0.0 mm
06:45 AM 28.2°F-2.1°C 21.3°F-5.9°C 75% 7.0 mph SE11.3 kmh SE 10.0 mph16.1 kmh 29.87 in1011.5 mb 0.00 in0.0 mm 0.00 in0.0 mm 0.00 in0.0 mm
06:50 AM 28.3°F-2.1°C 21.4°F-5.9°C 75% 8.0 mph S12.9 kmh S 12.0 mph19.3 kmh 29.86 in1011.2 mb 0.00 in0.0 mm 0.00 in0.0 mm 0.00 in0.0 mm
06:55 AM 28.3°F-2.1°C 21.4°F-5.9°C 75% 6.0 mph SSE9.7 kmh SSE 11.0 mph17.7 kmh 29.85 in1010.8 mb 0.00 in0.0 mm 0.00 in0.0 mm 0.00 in0.0 mm
07:00 AM 28.4°F-2.0°C 21.5°F-5.8°C 75% 9.0 mph SSW14.5 kmh SSW 10.0 mph16.1 kmh 29.85 in1010.8 mb 0.00 in0.0 mm 0.00 in0.0 mm 0.00 in0.0 mm
07:05 AM 28.4°F-2.0°C 21.8°F-5.7°C 76% 4.0 mph SSE6.4 kmh SSE 9.0 mph14.5 kmh 29.85 in1010.8 mb 0.00 in0.0 mm 0.00 in0.0 mm 0.00 in0.0 mm
07:10 AM 28.6°F-1.9°C 22.0°F-5.6°C 76% 10.0 mph SSE16.1 kmh SSE 14.0 mph22.5 kmh 29.84 in1010.5 mb 0.00 in0.0 mm 0.00 in0.0 mm 0.00 in0.0 mm
07:15 AM 28.7°F-1.8°C 22.1°F-5.5°C 76% 11.0 mph SSE17.7 kmh SSE 12.0 mph19.3 kmh 29.84 in1010.5 mb 0.00 in0.0 mm 0.00 in0.0 mm 0.00 in0.0 mm
07:20 AM 28.8°F-1.8°C 22.2°F-5.4°C 76% 12.0 mph SE19.3 kmh SE 12.0 mph19.3 kmh 29.84 in1010.5 mb 0.00 in0.0 mm 0.00 in0.0 mm 0.00 in0.0 mm
07:24 AM 29.0°F-1.7°C 22.4°F-5.3°C 76% 6.0 mph SE9.7 kmh SE 11.0 mph17.7 kmh 29.84 in1010.5 mb 0.00 in0.0 mm 0.00 in0.0 mm 0.00 in0.0 mm
07:30 AM 29.2°F-1.6°C 22.6°F-5.2°C 76% 6.0 mph S9.7 kmh S 13.0 mph20.9 kmh 29.84 in1010.5 mb 0.00 in0.0 mm 0.00 in0.0 mm 0.00 in0.0 mm
07:35 AM 29.3°F-1.5°C 22.7°F-5.2°C 76% 6.0 mph SSE9.7 kmh SSE 20.0 mph32.2 kmh 29.83 in1010.2 mb 0.00 in0.0 mm 0.00 in0.0 mm 0.00 in0.0 mm
07:39 AM 29.4°F-1.4°C 23.1°F-4.9°C 77% 7.0 mph S11.3 kmh S 10.0 mph16.1 kmh 29.83 in1010.2 mb 0.00 in0.0 mm 0.00 in0.0 mm 0.00 in0.0 mm
07:45 AM 29.6°F-1.3°C 23.0°F-5.0°C 76% 9.0 mph S14.5 kmh S 16.0 mph25.7 kmh 29.83 in1010.2 mb 0.00 in0.0 mm 0.00 in0.0 mm 0.00 in0.0 mm
07:50 AM 29.6°F-1.3°C 23.3°F-4.8°C 77% 11.0 mph SSE17.7 kmh SSE 11.0 mph17.7 kmh 29.83 in1010.2 mb 0.00 in0.0 mm 0.00 in0.0 mm 0.00 in0.0 mm
07:55 AM 29.7°F-1.3°C 23.4°F-4.8°C 77% 6.0 mph SSW9.7 kmh SSW 13.0 mph20.9 kmh 29.83 in1010.2 mb 0.00 in0.0 mm 0.00 in0.0 mm 0.00 in0.0 mm
08:00 AM 29.8°F-1.2°C 23.5°F-4.7°C 77% 4.0 mph ESE6.4 kmh ESE 14.0 mph22.5 kmh 29.82 in1009.8 mb 0.00 in0.0 mm 0.00 in0.0 mm 0.00 in0.0 mm
08:05 AM 29.8°F-1.2°C 23.5°F-4.7°C 77% 7.0 mph S11.3 kmh S 13.0 mph20.9 kmh 29.82 in1009.8 mb 0.00 in0.0 mm 0.00 in0.0 mm 0.00 in0.0 mm
08:10 AM 29.9°F-1.2°C 23.6°F-4.7°C 77% 9.0 mph SSW14.5 kmh SSW 12.0 mph19.3 kmh 29.82 in1009.8 mb 0.00 in0.0 mm 0.00 in0.0 mm 0.00 in0.0 mm
08:15 AM 29.9°F-1.2°C 23.6°F-4.7°C 77% 5.0 mph SSE8.0 kmh SSE 12.0 mph19.3 kmh 29.82 in1009.8 mb 0.00 in0.0 mm 0.00 in0.0 mm 0.00 in0.0 mm
08:19 AM 29.9°F-1.2°C 23.6°F-4.7°C 77% 6.0 mph S9.7 kmh S 11.0 mph17.7 kmh 29.82 in1009.8 mb 0.00 in0.0 mm 0.00 in0.0 mm 0.00 in0.0 mm
08:25 AM 29.9°F-1.2°C 23.9°F-4.5°C 78% 12.0 mph SSE19.3 kmh SSE 13.0 mph20.9 kmh 29.82 in1009.8 mb 0.00 in0.0 mm 0.00 in0.0 mm 0.00 in0.0 mm
08:30 AM 30.0°F-1.1°C 24.0°F-4.4°C 78% 6.0 mph S9.7 kmh S 12.0 mph19.3 kmh 29.82 in1009.8 mb 0.00 in0.0 mm 0.00 in0.0 mm 0.00 in0.0 mm
08:35 AM 30.1°F-1.1°C 24.1°F-4.4°C 78% 5.0 mph S8.0 kmh S 10.0 mph16.1 kmh 29.81 in1009.5 mb 0.00 in0.0 mm 0.00 in0.0 mm 0.00 in0.0 mm
08:40 AM 30.2°F-1.0°C 24.2°F-4.3°C 78% 5.0 mph SSE8.0 kmh SSE 12.0 mph19.3 kmh 29.81 in1009.5 mb 0.00 in0.0 mm 0.00 in0.0 mm 0.00 in0.0 mm
08:45 AM 30.3°F-0.9°C 24.3°F-4.3°C 78% 8.0 mph S12.9 kmh S 15.0 mph24.1 kmh 29.81 in1009.5 mb 0.00 in0.0 mm 0.00 in0.0 mm 0.00 in0.0 mm
08:50 AM 30.4°F-0.9°C 24.7°F-4.1°C 79% 10.0 mph S16.1 kmh S 14.0 mph22.5 kmh 29.81 in1009.5 mb 0.00 in0.0 mm 0.00 in0.0 mm 0.00 in0.0 mm
08:55 AM 30.5°F-0.8°C 24.8°F-4.0°C 79% 8.0 mph S12.9 kmh S 11.0 mph17.7 kmh 29.82 in1009.8 mb 0.00 in0.0 mm 0.00 in0.0 mm 0.00 in0.0 mm
09:00 AM 30.5°F-0.8°C 24.8°F-4.0°C 79% 8.0 mph S12.9 kmh S 12.0 mph19.3 kmh 29.82 in1009.8 mb 0.00 in0.0 mm 0.00 in0.0 mm 0.00 in0.0 mm
09:05 AM 30.6°F-0.8°C 24.9°F-3.9°C 79% 8.0 mph S12.9 kmh S 10.0 mph16.1 kmh 29.81 in1009.5 mb 0.00 in0.0 mm 0.00 in0.0 mm 0.00 in0.0 mm
09:10 AM 30.7°F-0.7°C 25.0°F-3.9°C 79% 1.0 mph ESE1.6 kmh ESE 13.0 mph20.9 kmh 29.81 in1009.5 mb 0.00 in0.0 mm 0.00 in0.0 mm 0.00 in0.0 mm
09:15 AM 30.7°F-0.7°C 25.0°F-3.9°C 79% 13.0 mph S20.9 kmh S 13.0 mph20.9 kmh 29.81 in1009.5 mb 0.00 in0.0 mm 0.00 in0.0 mm 0.00 in0.0 mm
09:20 AM 30.9°F-0.6°C 25.2°F-3.8°C 79% 11.0 mph S17.7 kmh S 14.0 mph22.5 kmh 29.80 in1009.1 mb 0.00 in0.0 mm 0.00 in0.0 mm 0.00 in0.0 mm
09:24 AM 31.0°F-0.6°C 25.3°F-3.7°C 79% 6.0 mph S9.7 kmh S 10.0 mph16.1 kmh 29.80 in1009.1 mb 0.00 in0.0 mm 0.00 in0.0 mm 0.00 in0.0 mm
09:30 AM 31.1°F-0.5°C 25.7°F-3.5°C 80% 8.0 mph S12.9 kmh S 11.0 mph17.7 kmh 29.80 in1009.1 mb 0.00 in0.0 mm 0.00 in0.0 mm 0.00 in0.0 mm
09:35 AM 31.2°F-0.4°C 25.8°F-3.4°C 80% 7.0 mph SSE11.3 kmh SSE 10.0 mph16.1 kmh 29.79 in1008.8 mb 0.00 in0.0 mm 0.00 in0.0 mm 0.00 in0.0 mm
09:40 AM 31.3°F-0.4°C 25.9°F-3.4°C 80% 4.0 mph SSE6.4 kmh SSE 13.0 mph20.9 kmh 29.79 in1008.8 mb 0.00 in0.0 mm 0.00 in0.0 mm 0.00 in0.0 mm
09:45 AM 31.5°F-0.3°C 26.1°F-3.3°C 80% 6.0 mph S9.7 kmh S 8.0 mph12.9 kmh 29.79 in1008.8 mb 0.00 in0.0 mm 0.00 in0.0 mm 0.00 in0.0 mm
09:49 AM 31.6°F-0.2°C 26.2°F-3.2°C 80% 4.0 mph S6.4 kmh S 11.0 mph17.7 kmh 29.79 in1008.8 mb 0.00 in0.0 mm 0.00 in0.0 mm 0.00 in0.0 mm
09:54 AM 31.8°F-0.1°C 26.4°F-3.1°C 80% 3.0 mph SE4.8 kmh SE 8.0 mph12.9 kmh 29.79 in1008.8 mb 0.00 in0.0 mm 0.00 in0.0 mm 0.00 in0.0 mm
10:00 AM 31.9°F-0.1°C 26.4°F-3.1°C 80% 5.0 mph S8.0 kmh S 10.0 mph16.1 kmh 29.78 in1008.5 mb 0.00 in0.0 mm 0.00 in0.0 mm 0.00 in0.0 mm
10:04 AM 32.1°F0.1°C 26.6°F-3.0°C 80% 4.0 mph SSE6.4 kmh SSE 6.0 mph9.7 kmh 29.78 in1008.5 mb 0.00 in0.0 mm 0.00 in0.0 mm 0.00 in0.0 mm
10:10 AM 32.4°F0.2°C 26.9°F-2.8°C 80% 7.0 mph SSE11.3 kmh SSE 10.0 mph16.1 kmh 29.78 in1008.5 mb 0.00 in0.0 mm 0.00 in0.0 mm 0.00 in0.0 mm
10:14 AM 32.6°F0.3°C 27.1°F-2.7°C 80% 7.0 mph SSE11.3 kmh SSE 7.0 mph11.3 kmh 29.78 in1008.5 mb 0.00 in0.0 mm 0.00 in0.0 mm 0.00 in0.0 mm
10:20 AM 33.0°F0.6°C 27.5°F-2.5°C 80% 3.0 mph S4.8 kmh S 10.0 mph16.1 kmh 29.78 in1008.5 mb 0.00 in0.0 mm 0.00 in0.0 mm 0.00 in0.0 mm
10:25 AM 33.3°F0.7°C 27.8°F-2.3°C 80% 6.0 mph SE9.7 kmh SE 9.0 mph14.5 kmh 29.78 in1008.5 mb 0.00 in0.0 mm 0.00 in0.0 mm 0.00 in0.0 mm
10:30 AM 33.5°F0.8°C 28.0°F-2.2°C 80% 4.0 mph S6.4 kmh S 6.0 mph9.7 kmh 29.77 in1008.1 mb 0.00 in0.0 mm 0.00 in0.0 mm 0.00 in0.0 mm
10:35 AM 33.8°F1.0°C 28.6°F-1.9°C 81% 6.0 mph SSW9.7 kmh SSW 10.0 mph16.1 kmh 29.78 in1008.5 mb 0.00 in0.0 mm 0.00 in0.0 mm 0.00 in0.0 mm
10:40 AM 34.0°F1.1°C 28.8°F-1.8°C 81% 7.0 mph SSE11.3 kmh SSE 10.0 mph16.1 kmh 29.78 in1008.5 mb 0.00 in0.0 mm 0.00 in0.0 mm 0.00 in0.0 mm
10:45 AM 34.2°F1.2°C 29.0°F-1.7°C 81% 5.0 mph S8.0 kmh S 10.0 mph16.1 kmh 29.77 in1008.1 mb 0.00 in0.0 mm 0.00 in0.0 mm 0.00 in0.0 mm
10:50 AM 34.5°F1.4°C 29.3°F-1.5°C 81% 5.0 mph SSE8.0 kmh SSE 9.0 mph14.5 kmh 29.76 in1007.8 mb 0.00 in0.0 mm 0.00 in0.0 mm 0.00 in0.0 mm
10:55 AM 34.8°F1.6°C 29.6°F-1.3°C 81% 6.0 mph S9.7 kmh S 10.0 mph16.1 kmh 29.76 in1007.8 mb 0.00 in0.0 mm 0.00 in0.0 mm 0.00 in0.0 mm
11:00 AM 35.2°F1.8°C 30.0°F-1.1°C 81% 7.0 mph SSE11.3 kmh SSE 10.0 mph16.1 kmh 29.75 in1007.5 mb 0.00 in0.0 mm 0.00 in0.0 mm 0.00 in0.0 mm
11:05 AM 35.6°F2.0°C 30.1°F-1.1°C 80% 4.0 mph SSE6.4 kmh SSE 11.0 mph17.7 kmh 29.75 in1007.5 mb 0.00 in0.0 mm 0.00 in0.0 mm 0.00 in0.0 mm
11:10 AM 35.8°F2.1°C 30.3°F-0.9°C 80% 3.0 mph S4.8 kmh S 9.0 mph14.5 kmh 29.75 in1007.5 mb 0.00 in0.0 mm 0.00 in0.0 mm 0.00 in0.0 mm
11:15 AM 36.1°F2.3°C 30.5°F-0.8°C 80% 5.0 mph S8.0 kmh S 9.0 mph14.5 kmh 29.75 in1007.5 mb 0.00 in0.0 mm 0.00 in0.0 mm 0.00 in0.0 mm
11:20 AM 36.5°F2.5°C 30.9°F-0.6°C 80% 8.0 mph S12.9 kmh S 10.0 mph16.1 kmh 29.75 in1007.5 mb 0.00 in0.0 mm 0.00 in0.0 mm 0.00 in0.0 mm
11:24 AM 37.0°F2.8°C 31.1°F-0.5°C 79% 4.0 mph S6.4 kmh S 9.0 mph14.5 kmh 29.75 in1007.5 mb 0.00 in0.0 mm 0.00 in0.0 mm 0.00 in0.0 mm
11:29 AM 37.3°F2.9°C 31.1°F-0.5°C 78% 7.0 mph S11.3 kmh S 10.0 mph16.1 kmh 29.75 in1007.5 mb 0.00 in0.0 mm 0.00 in0.0 mm 0.00 in0.0 mm
11:35 AM 37.5°F3.1°C 31.3°F-0.4°C 78% 7.0 mph S11.3 kmh S 11.0 mph17.7 kmh 29.74 in1007.1 mb 0.00 in0.0 mm 0.00 in0.0 mm 0.00 in0.0 mm
11:40 AM 37.7°F3.2°C 31.5°F-0.3°C 78% 5.0 mph S8.0 kmh S 11.0 mph17.7 kmh 29.74 in1007.1 mb 0.00 in0.0 mm 0.00 in0.0 mm 0.00 in0.0 mm
11:45 AM 38.0°F3.3°C 31.8°F-0.1°C 78% 7.0 mph S11.3 kmh S 10.0 mph16.1 kmh 29.74 in1007.1 mb 0.00 in0.0 mm 0.00 in0.0 mm 0.00 in0.0 mm
11:50 AM 38.3°F3.5°C 31.7°F-0.2°C 77% 6.0 mph S9.7 kmh S 11.0 mph17.7 kmh 29.74 in1007.1 mb 0.00 in0.0 mm 0.00 in0.0 mm 0.00 in0.0 mm
11:55 AM 38.5°F3.6°C 31.9°F-0.1°C 77% 6.0 mph SSW9.7 kmh SSW 10.0 mph16.1 kmh 29.73 in1006.8 mb 0.00 in0.0 mm 0.00 in0.0 mm 0.00 in0.0 mm
12:00 PM 38.7°F3.7°C 32.1°F0.1°C 77% 5.0 mph SSW8.0 kmh SSW 10.0 mph16.1 kmh 29.73 in1006.8 mb 0.00 in0.0 mm 0.00 in0.0 mm 0.00 in0.0 mm
12:05 PM 39.0°F3.9°C 32.1°F0.1°C 76% 3.0 mph SSW4.8 kmh SSW 9.0 mph14.5 kmh 29.73 in1006.8 mb 0.00 in0.0 mm 0.00 in0.0 mm 0.00 in0.0 mm
12:09 PM 39.3°F4.1°C 32.4°F0.2°C 76% 7.0 mph SSE11.3 kmh SSE 10.0 mph16.1 kmh 29.73 in1006.8 mb 0.00 in0.0 mm 0.00 in0.0 mm 0.00 in0.0 mm
12:14 PM 39.7°F4.3°C 32.8°F0.4°C 76% 10.0 mph S16.1 kmh S 10.0 mph16.1 kmh 29.73 in1006.8 mb 0.00 in0.0 mm 0.00 in0.0 mm 0.00 in0.0 mm
12:20 PM 40.0°F4.4°C 32.7°F0.4°C 75% 6.0 mph SSE9.7 kmh SSE 13.0 mph20.9 kmh 29.72 in1006.4 mb 0.00 in0.0 mm 0.00 in0.0 mm 0.00 in0.0 mm
12:25 PM 40.5°F4.7°C 32.9°F0.5°C 74% 5.0 mph S8.0 kmh S 11.0 mph17.7 kmh 29.71 in1006.1 mb 0.00 in0.0 mm 0.00 in0.0 mm 0.00 in0.0 mm
12:29 PM 40.9°F4.9°C 33.3°F0.7°C 74% 7.0 mph SSW11.3 kmh SSW 11.0 mph17.7 kmh 29.72 in1006.4 mb 0.00 in0.0 mm 0.00 in0.0 mm 0.00 in0.0 mm
12:35 PM 41.3°F5.2°C 33.7°F0.9°C 74% 4.0 mph S6.4 kmh S 8.0 mph12.9 kmh 29.72 in1006.4 mb 0.00 in0.0 mm 0.00 in0.0 mm 0.00 in0.0 mm
12:40 PM 41.9°F5.5°C 33.9°F1.1°C 73% 7.0 mph S11.3 kmh S 10.0 mph16.1 kmh 29.72 in1006.4 mb 0.00 in0.0 mm 0.00 in0.0 mm 0.00 in0.0 mm
12:45 PM 42.5°F5.8°C 33.8°F1.0°C 71% 5.0 mph S8.0 kmh S 9.0 mph14.5 kmh 29.72 in1006.4 mb 0.00 in0.0 mm 0.00 in0.0 mm 0.00 in0.0 mm
12:50 PM 42.8°F6.0°C 33.7°F0.9°C 70% 8.0 mph SW12.9 kmh SW 9.0 mph14.5 kmh 29.72 in1006.4 mb 0.00 in0.0 mm 0.00 in0.0 mm 0.00 in0.0 mm
12:55 PM 43.1°F6.2°C 34.0°F1.1°C 70% 3.0 mph SSW4.8 kmh SSW 10.0 mph16.1 kmh 29.71 in1006.1 mb 0.00 in0.0 mm 0.00 in0.0 mm 0.00 in0.0 mm
12:59 PM 43.4°F6.3°C 33.9°F1.1°C 69% 5.0 mph S8.0 kmh S 7.0 mph11.3 kmh 29.71 in1006.1 mb 0.00 in0.0 mm 0.00 in0.0 mm 0.00 in0.0 mm
01:04 PM 43.6°F6.4°C 34.1°F1.2°C 69% 2.0 mph S3.2 kmh S 7.0 mph11.3 kmh 29.72 in1006.4 mb 0.00 in0.0 mm 0.00 in0.0 mm 0.00 in0.0 mm
01:10 PM 43.9°F6.6°C 34.0°F1.1°C 68% 7.0 mph S11.3 kmh S 14.0 mph22.5 kmh 29.71 in1006.1 mb 0.00 in0.0 mm 0.00 in0.0 mm 0.00 in0.0 mm
01:14 PM 44.1°F6.7°C 33.9°F1.1°C 67% 11.0 mph SW17.7 kmh SW 11.0 mph17.7 kmh 29.71 in1006.1 mb 0.00 in0.0 mm 0.00 in0.0 mm 0.00 in0.0 mm
01:20 PM 44.2°F6.8°C 34.0°F1.1°C 67% 8.0 mph SW12.9 kmh SW 11.0 mph17.7 kmh 29.70 in1005.8 mb 0.00 in0.0 mm 0.00 in0.0 mm 0.00 in0.0 mm
01:25 PM 44.3°F6.8°C 34.1°F1.2°C 67% 2.0 mph S3.2 kmh S 11.0 mph17.7 kmh 29.70 in1005.8 mb 0.00 in0.0 mm 0.00 in0.0 mm 0.00 in0.0 mm
01:30 PM 44.3°F6.8°C 33.7°F0.9°C 66% 4.0 mph SSW6.4 kmh SSW 14.0 mph22.5 kmh 29.70 in1005.8 mb 0.00 in0.0 mm 0.00 in0.0 mm 0.00 in0.0 mm
01:35 PM 44.4°F6.9°C 34.1°F1.2°C 67% 11.0 mph SW17.7 kmh SW 11.0 mph17.7 kmh 29.69 in1005.4 mb 0.00 in0.0 mm 0.00 in0.0 mm 0.00 in0.0 mm
01:40 PM 44.6°F7.0°C 34.3°F1.3°C 67% 4.0 mph SSE6.4 kmh SSE 9.0 mph14.5 kmh 29.69 in1005.4 mb 0.00 in0.0 mm 0.00 in0.0 mm 0.00 in0.0 mm
01:45 PM 44.9°F7.2°C 34.2°F1.2°C 66% 12.0 mph SW19.3 kmh SW 14.0 mph22.5 kmh 29.69 in1005.4 mb 0.00 in0.0 mm 0.00 in0.0 mm 0.00 in0.0 mm
01:50 PM 45.0°F7.2°C 34.3°F1.3°C 66% 7.0 mph SW11.3 kmh SW 12.0 mph19.3 kmh 29.69 in1005.4 mb 0.00 in0.0 mm 0.00 in0.0 mm 0.00 in0.0 mm
01:55 PM 45.1°F7.3°C 34.4°F1.3°C 66% 4.0 mph SSW6.4 kmh SSW 10.0 mph16.1 kmh 29.69 in1005.4 mb 0.00 in0.0 mm 0.00 in0.0 mm 0.00 in0.0 mm
02:00 PM 45.0°F7.2°C 34.3°F1.3°C 66% 4.0 mph SW6.4 kmh SW 9.0 mph14.5 kmh 29.69 in1005.4 mb 0.00 in0.0 mm 0.00 in0.0 mm 0.00 in0.0 mm
02:05 PM 44.9°F7.2°C 34.2°F1.2°C 66% 5.0 mph SW8.0 kmh SW 8.0 mph12.9 kmh 29.69 in1005.4 mb 0.00 in0.0 mm 0.00 in0.0 mm 0.00 in0.0 mm
02:10 PM 44.9°F7.2°C 34.2°F1.2°C 66% 7.0 mph SW11.3 kmh SW 11.0 mph17.7 kmh 29.69 in1005.4 mb 0.00 in0.0 mm 0.00 in0.0 mm 0.00 in0.0 mm
02:15 PM 44.9°F7.2°C 34.2°F1.2°C 66% 4.0 mph SW6.4 kmh SW 11.0 mph17.7 kmh 29.69 in1005.4 mb 0.00 in0.0 mm 0.00 in0.0 mm 0.00 in0.0 mm
02:20 PM 44.9°F7.2°C 34.2°F1.2°C 66% 9.0 mph SW14.5 kmh SW 9.0 mph14.5 kmh 29.69 in1005.4 mb 0.00 in0.0 mm 0.00 in0.0 mm 0.00 in0.0 mm
02:25 PM 44.9°F7.2°C 34.2°F1.2°C 66% 11.0 mph SW17.7 kmh SW 12.0 mph19.3 kmh 29.69 in1005.4 mb 0.00 in0.0 mm 0.00 in0.0 mm 0.00 in0.0 mm
02:29 PM 45.0°F7.2°C 34.3°F1.3°C 66% 5.0 mph WSW8.0 kmh WSW 12.0 mph19.3 kmh 29.69 in1005.4 mb 0.00 in0.0 mm 0.00 in0.0 mm 0.00 in0.0 mm
02:35 PM 45.2°F7.3°C 34.5°F1.4°C 66% 8.0 mph WNW12.9 kmh WNW 12.0 mph19.3 kmh 29.69 in1005.4 mb 0.00 in0.0 mm 0.00 in0.0 mm 0.00 in0.0 mm
02:40 PM 45.2°F7.3°C 34.9°F1.6°C 67% 6.0 mph W9.7 kmh W 17.0 mph27.4 kmh 29.69 in1005.4 mb 0.00 in0.0 mm 0.00 in0.0 mm 0.00 in0.0 mm
02:45 PM 45.1°F7.3°C 34.8°F1.6°C 67% 8.0 mph SSW12.9 kmh SSW 8.0 mph12.9 kmh 29.68 in1005.1 mb 0.00 in0.0 mm 0.00 in0.0 mm 0.00 in0.0 mm
02:50 PM 45.1°F7.3°C 34.8°F1.6°C 67% 8.0 mph SW12.9 kmh SW 14.0 mph22.5 kmh 29.69 in1005.4 mb 0.00 in0.0 mm 0.00 in0.0 mm 0.00 in0.0 mm
02:55 PM 45.0°F7.2°C 35.1°F1.7°C 68% 10.0 mph SW16.1 kmh SW 17.0 mph27.4 kmh 29.68 in1005.1 mb 0.00 in0.0 mm 0.00 in0.0 mm 0.00 in0.0 mm
03:00 PM 44.7°F7.1°C 35.2°F1.8°C 69% 10.0 mph SW16.1 kmh SW 14.0 mph22.5 kmh 29.68 in1005.1 mb 0.00 in0.0 mm 0.00 in0.0 mm 0.00 in0.0 mm
03:05 PM 44.6°F7.0°C 35.4°F1.9°C 70% 6.0 mph SSW9.7 kmh SSW 15.0 mph24.1 kmh 29.68 in1005.1 mb 0.00 in0.0 mm 0.00 in0.0 mm 0.00 in0.0 mm
03:10 PM 44.4°F6.9°C 35.6°F2.0°C 71% 10.0 mph SW16.1 kmh SW 21.0 mph33.8 kmh 29.68 in1005.1 mb 0.00 in0.0 mm 0.00 in0.0 mm 0.00 in0.0 mm
03:15 PM 44.4°F6.9°C 35.6°F2.0°C 71% 4.0 mph SW6.4 kmh SW 14.0 mph22.5 kmh 29.68 in1005.1 mb 0.00 in0.0 mm 0.00 in0.0 mm 0.00 in0.0 mm
03:20 PM 44.5°F6.9°C 36.1°F2.3°C 72% 14.0 mph SW22.5 kmh SW 17.0 mph27.4 kmh 29.67 in1004.7 mb 0.00 in0.0 mm 0.00 in0.0 mm 0.00 in0.0 mm
03:24 PM 44.5°F6.9°C 36.1°F2.3°C 72% 7.0 mph SW11.3 kmh SW 12.0 mph19.3 kmh 29.67 in1004.7 mb 0.00 in0.0 mm 0.00 in0.0 mm 0.00 in0.0 mm
03:30 PM 44.5°F6.9°C 36.1°F2.3°C 72% 9.0 mph SW14.5 kmh SW 16.0 mph25.7 kmh 29.67 in1004.7 mb 0.00 in0.0 mm 0.00 in0.0 mm 0.00 in0.0 mm
03:35 PM 44.5°F6.9°C 36.1°F2.3°C 72% 7.0 mph WSW11.3 kmh WSW 13.0 mph20.9 kmh 29.67 in1004.7 mb 0.00 in0.0 mm 0.00 in0.0 mm 0.00 in0.0 mm
03:40 PM 44.4°F6.9°C 36.0°F2.2°C 72% 12.0 mph SW19.3 kmh SW 13.0 mph20.9 kmh 29.67 in1004.7 mb 0.00 in0.0 mm 0.00 in0.0 mm 0.00 in0.0 mm
03:45 PM 44.2°F6.8°C 36.1°F2.3°C 73% 9.0 mph SW14.5 kmh SW 17.0 mph27.4 kmh 29.67 in1004.7 mb 0.00 in0.0 mm 0.00 in0.0 mm 0.00 in0.0 mm
03:50 PM 43.9°F6.6°C 36.2°F2.3°C 74% 4.0 mph SW6.4 kmh SW 15.0 mph24.1 kmh 29.67 in1004.7 mb 0.00 in0.0 mm 0.00 in0.0 mm 0.00 in0.0 mm
03:55 PM 43.5°F6.4°C 36.5°F2.5°C 76% 8.0 mph WNW12.9 kmh WNW 10.0 mph16.1 kmh 29.67 in1004.7 mb 0.00 in0.0 mm 0.00 in0.0 mm 0.00 in0.0 mm
04:00 PM 43.2°F6.2°C 36.5°F2.5°C 77% 9.0 mph SW14.5 kmh SW 17.0 mph27.4 kmh 29.67 in1004.7 mb 0.00 in0.0 mm 0.00 in0.0 mm 0.00 in0.0 mm
04:04 PM 42.8°F6.0°C 36.8°F2.7°C 79% 10.0 mph WSW16.1 kmh WSW 15.0 mph24.1 kmh 29.67 in1004.7 mb 0.00 in0.0 mm 0.00 in0.0 mm 0.00 in0.0 mm
04:10 PM 42.4°F5.8°C 36.7°F2.6°C 80% 10.0 mph WSW16.1 kmh WSW 17.0 mph27.4 kmh 29.68 in1005.1 mb 0.00 in0.0 mm 0.00 in0.0 mm 0.00 in0.0 mm
04:14 PM 42.1°F5.6°C 36.7°F2.6°C 81% 7.0 mph W11.3 kmh W 15.0 mph24.1 kmh 29.68 in1005.1 mb 0.01 in0.3 mm 0.15 in3.8 mm 0.01 in0.3 mm
04:20 PM 41.9°F5.5°C 36.8°F2.7°C 82% 7.0 mph NW11.3 kmh NW 14.0 mph22.5 kmh 29.68 in1005.1 mb 0.01 in0.3 mm 0.00 in0.0 mm 0.01 in0.3 mm
04:25 PM 41.8°F5.4°C 36.7°F2.6°C 82% 2.0 mph WNW3.2 kmh WNW 5.0 mph8.0 kmh 29.69 in1005.4 mb 0.01 in0.3 mm 0.00 in0.0 mm 0.01 in0.3 mm
04:29 PM 41.4°F5.2°C 36.6°F2.6°C 83% 9.0 mph WSW14.5 kmh WSW 14.0 mph22.5 kmh 29.70 in1005.8 mb 0.01 in0.3 mm 0.00 in0.0 mm 0.01 in0.3 mm
04:34 PM 40.9°F4.9°C 36.8°F2.7°C 85% 6.0 mph SW9.7 kmh SW 8.0 mph12.9 kmh 29.69 in1005.4 mb 0.01 in0.3 mm 0.00 in0.0 mm 0.01 in0.3 mm
04:39 PM 40.4°F4.7°C 36.6°F2.6°C 86% 5.0 mph SW8.0 kmh SW 7.0 mph11.3 kmh 29.70 in1005.8 mb 0.01 in0.3 mm 0.00 in0.0 mm 0.01 in0.3 mm
04:45 PM 39.9°F4.4°C 36.4°F2.4°C 87% 9.0 mph SW14.5 kmh SW 12.0 mph19.3 kmh 29.69 in1005.4 mb 0.01 in0.3 mm 0.00 in0.0 mm 0.01 in0.3 mm
04:49 PM 39.8°F4.3°C 36.3°F2.4°C 87% 8.0 mph WSW12.9 kmh WSW 11.0 mph17.7 kmh 29.69 in1005.4 mb 0.01 in0.3 mm 0.00 in0.0 mm 0.01 in0.3 mm
04:55 PM 39.7°F4.3°C 36.4°F2.4°C 88% 8.0 mph SW12.9 kmh SW 11.0 mph17.7 kmh 29.69 in1005.4 mb 0.01 in0.3 mm 0.00 in0.0 mm 0.01 in0.3 mm
05:00 PM 39.7°F4.3°C 36.4°F2.4°C 88% 8.0 mph SW12.9 kmh SW 13.0 mph20.9 kmh 29.69 in1005.4 mb 0.01 in0.3 mm 0.00 in0.0 mm 0.01 in0.3 mm
05:05 PM 39.7°F4.3°C 36.4°F2.4°C 88% 8.0 mph SW12.9 kmh SW 12.0 mph19.3 kmh 29.70 in1005.8 mb 0.01 in0.3 mm 0.00 in0.0 mm 0.01 in0.3 mm
05:10 PM 39.6°F4.2°C 36.4°F2.4°C 88% 3.0 mph SW4.8 kmh SW 9.0 mph14.5 kmh 29.70 in1005.8 mb 0.01 in0.3 mm 0.00 in0.0 mm 0.01 in0.3 mm
05:15 PM 39.7°F4.3°C 36.4°F2.4°C 88% 12.0 mph SW19.3 kmh SW 14.0 mph22.5 kmh 29.70 in1005.8 mb 0.01 in0.3 mm 0.00 in0.0 mm 0.01 in0.3 mm
05:19 PM 39.7°F4.3°C 36.4°F2.4°C 88% 4.0 mph SW6.4 kmh SW 8.0 mph12.9 kmh 29.70 in1005.8 mb 0.00 in0.0 mm 0.00 in0.0 mm 0.01 in0.3 mm
05:25 PM 39.7°F4.3°C 36.4°F2.4°C 88% 4.0 mph SW6.4 kmh SW 12.0 mph19.3 kmh 29.71 in1006.1 mb 0.01 in0.3 mm 0.10 in2.5 mm 0.02 in0.5 mm
05:29 PM 39.6°F4.2°C 36.4°F2.4°C 88% 4.0 mph SW6.4 kmh SW 10.0 mph16.1 kmh 29.71 in1006.1 mb 0.01 in0.3 mm 0.00 in0.0 mm 0.02 in0.5 mm
05:35 PM 39.6°F4.2°C 36.6°F2.6°C 89% 3.0 mph SW4.8 kmh SW 11.0 mph17.7 kmh 29.71 in1006.1 mb 0.01 in0.3 mm 0.00 in0.0 mm 0.02 in0.5 mm
05:40 PM 39.5°F4.2°C 36.5°F2.5°C 89% 6.0 mph SW9.7 kmh SW 10.0 mph16.1 kmh 29.71 in1006.1 mb 0.01 in0.3 mm 0.00 in0.0 mm 0.02 in0.5 mm
05:45 PM 39.5°F4.2°C 36.5°F2.5°C 89% 2.0 mph SW3.2 kmh SW 7.0 mph11.3 kmh 29.71 in1006.1 mb 0.01 in0.3 mm 0.00 in0.0 mm 0.02 in0.5 mm
05:50 PM 39.4°F4.1°C 36.4°F2.4°C 89% 6.0 mph SW9.7 kmh SW 10.0 mph16.1 kmh 29.71 in1006.1 mb 0.01 in0.3 mm 0.00 in0.0 mm 0.02 in0.5 mm
05:54 PM 39.3°F4.1°C 36.6°F2.6°C 90% 5.0 mph SW8.0 kmh SW 9.0 mph14.5 kmh 29.71 in1006.1 mb 0.01 in0.3 mm 0.00 in0.0 mm 0.02 in0.5 mm
06:00 PM 39.4°F4.1°C 36.7°F2.6°C 90% 6.0 mph SW9.7 kmh SW 9.0 mph14.5 kmh 29.71 in1006.1 mb 0.01 in0.3 mm 0.00 in0.0 mm 0.02 in0.5 mm
06:05 PM 39.3°F4.1°C 36.6°F2.6°C 90% 5.0 mph SW8.0 kmh SW 11.0 mph17.7 kmh 29.71 in1006.1 mb 0.01 in0.3 mm 0.00 in0.0 mm 0.02 in0.5 mm
06:10 PM 39.2°F4.0°C 36.5°F2.5°C 90% 3.0 mph SW4.8 kmh SW 6.0 mph9.7 kmh 29.71 in1006.1 mb 0.01 in0.3 mm 0.00 in0.0 mm 0.02 in0.5 mm
06:15 PM 39.2°F4.0°C 36.5°F2.5°C 90% 5.0 mph SW8.0 kmh SW 5.0 mph8.0 kmh 29.71 in1006.1 mb 0.01 in0.3 mm 0.00 in0.0 mm 0.02 in0.5 mm
06:20 PM 39.1°F3.9°C 36.4°F2.4°C 90% 4.0 mph SW6.4 kmh SW 10.0 mph16.1 kmh 29.71 in1006.1 mb 0.01 in0.3 mm 0.00 in0.0 mm 0.02 in0.5 mm
06:25 PM 39.0°F3.9°C 36.6°F2.6°C 91% 4.0 mph SW6.4 kmh SW 10.0 mph16.1 kmh 29.71 in1006.1 mb 0.00 in0.0 mm 0.00 in0.0 mm 0.02 in0.5 mm
06:30 PM 39.0°F3.9°C 36.6°F2.6°C 91% 7.0 mph WSW11.3 kmh WSW 9.0 mph14.5 kmh 29.71 in1006.1 mb 0.01 in0.3 mm 0.12 in3.0 mm 0.03 in0.8 mm
06:35 PM 38.9°F3.8°C 36.5°F2.5°C 91% 3.0 mph SW4.8 kmh SW 6.0 mph9.7 kmh 29.72 in1006.4 mb 0.01 in0.3 mm 0.00 in0.0 mm 0.03 in0.8 mm
06:40 PM 38.0°F3.3°C 35.1°F1.7°C 89% 6.0 mph WSW9.7 kmh WSW 14.0 mph22.5 kmh 29.73 in1006.8 mb 0.01 in0.3 mm 0.00 in0.0 mm 0.03 in0.8 mm
06:45 PM 36.4°F2.4°C 33.5°F0.8°C 89% 4.0 mph NW6.4 kmh NW 11.0 mph17.7 kmh 29.74 in1007.1 mb 0.01 in0.3 mm 0.00 in0.0 mm 0.03 in0.8 mm
06:50 PM 35.2°F1.8°C 32.0°F0.0°C 88% 3.0 mph NW4.8 kmh NW 11.0 mph17.7 kmh 29.75 in1007.5 mb 0.01 in0.3 mm 0.00 in0.0 mm 0.03 in0.8 mm
06:55 PM 34.2°F1.2°C 31.3°F-0.4°C 89% 3.0 mph NW4.8 kmh NW 15.0 mph24.1 kmh 29.75 in1007.5 mb 0.02 in0.5 mm 0.12 in3.0 mm 0.04 in1.0 mm
06:59 PM 33.5°F0.8°C 30.6°F-0.8°C 89% 9.0 mph WSW14.5 kmh WSW 17.0 mph27.4 kmh 29.76 in1007.8 mb 0.02 in0.5 mm 0.00 in0.0 mm 0.04 in1.0 mm
07:05 PM 32.5°F0.3°C 29.4°F-1.4°C 88% 12.0 mph WNW19.3 kmh WNW 13.0 mph20.9 kmh 29.76 in1007.8 mb 0.02 in0.5 mm 0.00 in0.0 mm 0.04 in1.0 mm
07:09 PM 31.9°F-0.1°C 28.8°F-1.8°C 88% 9.0 mph NW14.5 kmh NW 13.0 mph20.9 kmh 29.76 in1007.8 mb 0.02 in0.5 mm 0.00 in0.0 mm 0.04 in1.0 mm
07:15 PM 31.5°F-0.3°C 28.4°F-2.0°C 88% 16.0 mph WSW25.7 kmh WSW 16.0 mph25.7 kmh 29.77 in1008.1 mb 0.02 in0.5 mm 0.00 in0.0 mm 0.04 in1.0 mm
07:20 PM 31.0°F-0.6°C 27.6°F-2.4°C 87% 9.0 mph SW14.5 kmh SW 16.0 mph25.7 kmh 29.77 in1008.1 mb 0.02 in0.5 mm 0.00 in0.0 mm 0.04 in1.0 mm
07:25 PM 30.7°F-0.7°C 27.3°F-2.6°C 87% 7.0 mph NW11.3 kmh NW 13.0 mph20.9 kmh 29.78 in1008.5 mb 0.02 in0.5 mm 0.00 in0.0 mm 0.04 in1.0 mm
07:30 PM 30.4°F-0.9°C 27.0°F-2.8°C 87% 7.0 mph WSW11.3 kmh WSW 17.0 mph27.4 kmh 29.78 in1008.5 mb 0.02 in0.5 mm 0.00 in0.0 mm 0.04 in1.0 mm
07:34 PM 30.2°F-1.0°C 26.5°F-3.1°C 86% 9.0 mph SW14.5 kmh SW 14.0 mph22.5 kmh 29.80 in1009.1 mb 0.01 in0.3 mm 0.00 in0.0 mm 0.04 in1.0 mm
07:40 PM 29.9°F-1.2°C 26.2°F-3.2°C 86% 6.0 mph W9.7 kmh W 11.0 mph17.7 kmh 29.80 in1009.1 mb 0.01 in0.3 mm 0.00 in0.0 mm 0.04 in1.0 mm
07:45 PM 29.8°F-1.2°C 26.1°F-3.3°C 86% 4.0 mph SW6.4 kmh SW 12.0 mph19.3 kmh 29.80 in1009.1 mb 0.01 in0.3 mm 0.00 in0.0 mm 0.04 in1.0 mm
07:50 PM 29.7°F-1.3°C 26.0°F-3.3°C 86% 4.0 mph WSW6.4 kmh WSW 8.0 mph12.9 kmh 29.81 in1009.5 mb 0.01 in0.3 mm 0.00 in0.0 mm 0.04 in1.0 mm
07:55 PM 29.4°F-1.4°C 25.5°F-3.6°C 85% 7.0 mph NW11.3 kmh NW 13.0 mph20.9 kmh 29.81 in1009.5 mb 0.01 in0.3 mm 0.00 in0.0 mm 0.04 in1.0 mm
08:00 PM 29.0°F-1.7°C 24.8°F-4.0°C 84% 3.0 mph WSW4.8 kmh WSW 10.0 mph16.1 kmh 29.81 in1009.5 mb 0.00 in0.0 mm 0.00 in0.0 mm 0.04 in1.0 mm
08:05 PM 28.5°F-1.9°C 24.0°F-4.4°C 83% 10.0 mph W16.1 kmh W 15.0 mph24.1 kmh 29.82 in1009.8 mb 0.00 in0.0 mm 0.00 in0.0 mm 0.04 in1.0 mm
08:09 PM 28.0°F-2.2°C 23.5°F-4.7°C 83% 8.0 mph W12.9 kmh W 10.0 mph16.1 kmh 29.82 in1009.8 mb 0.00 in0.0 mm 0.00 in0.0 mm 0.04 in1.0 mm
08:15 PM 27.7°F-2.4°C 23.2°F-4.9°C 83% 7.0 mph WNW11.3 kmh WNW 13.0 mph20.9 kmh 29.83 in1010.2 mb 0.00 in0.0 mm 0.00 in0.0 mm 0.04 in1.0 mm
08:20 PM 27.5°F-2.5°C 23.0°F-5.0°C 83% 4.0 mph NW6.4 kmh NW 7.0 mph11.3 kmh 29.84 in1010.5 mb 0.00 in0.0 mm 0.00 in0.0 mm 0.04 in1.0 mm
08:25 PM 27.2°F-2.7°C 22.7°F-5.2°C 83% 6.0 mph WSW9.7 kmh WSW 11.0 mph17.7 kmh 29.84 in1010.5 mb 0.00 in0.0 mm 0.00 in0.0 mm 0.04 in1.0 mm
08:30 PM 27.0°F-2.8°C 22.5°F-5.3°C 83% 2.0 mph NW3.2 kmh NW 12.0 mph19.3 kmh 29.85 in1010.8 mb 0.00 in0.0 mm 0.00 in0.0 mm 0.04 in1.0 mm
08:35 PM 26.7°F-2.9°C 22.2°F-5.4°C 83% 8.0 mph WSW12.9 kmh WSW 10.0 mph16.1 kmh 29.85 in1010.8 mb 0.00 in0.0 mm 0.00 in0.0 mm 0.04 in1.0 mm
08:40 PM 26.5°F-3.1°C 22.1°F-5.5°C 83% 5.0 mph WSW8.0 kmh WSW 15.0 mph24.1 kmh 29.85 in1010.8 mb 0.00 in0.0 mm 0.00 in0.0 mm 0.04 in1.0 mm
08:45 PM 26.2°F-3.2°C 21.5°F-5.8°C 82% 4.0 mph NW6.4 kmh NW 12.0 mph19.3 kmh 29.86 in1011.2 mb 0.00 in0.0 mm 0.00 in0.0 mm 0.04 in1.0 mm
08:50 PM 26.0°F-3.3°C 21.0°F-6.1°C 81% 10.0 mph NW16.1 kmh NW 15.0 mph24.1 kmh 29.86 in1011.2 mb 0.00 in0.0 mm 0.00 in0.0 mm 0.04 in1.0 mm
08:54 PM 25.6°F-3.6°C 20.6°F-6.3°C 81% 12.0 mph WSW19.3 kmh WSW 17.0 mph27.4 kmh 29.86 in1011.2 mb 0.00 in0.0 mm 0.00 in0.0 mm 0.04 in1.0 mm
09:00 PM 25.2°F-3.8°C 19.9°F-6.7°C 80% 5.0 mph NW8.0 kmh NW 13.0 mph20.9 kmh 29.86 in1011.2 mb 0.00 in0.0 mm 0.00 in0.0 mm 0.04 in1.0 mm
09:05 PM 24.9°F-3.9°C 19.3°F-7.1°C 79% 4.0 mph WNW6.4 kmh WNW 9.0 mph14.5 kmh 29.87 in1011.5 mb 0.00 in0.0 mm 0.00 in0.0 mm 0.04 in1.0 mm
09:10 PM 24.4°F-4.2°C 18.5°F-7.5°C 78% 6.0 mph NW9.7 kmh NW 14.0 mph22.5 kmh 29.87 in1011.5 mb 0.00 in0.0 mm 0.00 in0.0 mm 0.04 in1.0 mm
09:14 PM 24.2°F-4.3°C 18.3°F-7.6°C 78% 11.0 mph NW17.7 kmh NW 11.0 mph17.7 kmh 29.87 in1011.5 mb 0.00 in0.0 mm 0.00 in0.0 mm 0.04 in1.0 mm
09:20 PM 24.0°F-4.4°C 18.5°F-7.5°C 79% 7.0 mph W11.3 kmh W 13.0 mph20.9 kmh 29.88 in1011.9 mb 0.00 in0.0 mm 0.00 in0.0 mm 0.04 in1.0 mm
09:25 PM 23.8°F-4.6°C 18.0°F-7.8°C 78% 8.0 mph W12.9 kmh W 10.0 mph16.1 kmh 29.88 in1011.9 mb 0.00 in0.0 mm 0.00 in0.0 mm 0.04 in1.0 mm
09:30 PM 23.3°F-4.8°C 17.2°F-8.2°C 77% 9.0 mph NW14.5 kmh NW 14.0 mph22.5 kmh 29.89 in1012.2 mb 0.00 in0.0 mm 0.00 in0.0 mm 0.04 in1.0 mm
09:35 PM 22.8°F-5.1°C 16.7°F-8.5°C 77% 4.0 mph WNW6.4 kmh WNW 13.0 mph20.9 kmh 29.90 in1012.5 mb 0.00 in0.0 mm 0.00 in0.0 mm 0.04 in1.0 mm
09:40 PM 22.4°F-5.3°C 16.0°F-8.9°C 76% 6.0 mph NW9.7 kmh NW 13.0 mph20.9 kmh 29.90 in1012.5 mb 0.00 in0.0 mm 0.00 in0.0 mm 0.04 in1.0 mm
09:45 PM 22.1°F-5.5°C 15.7°F-9.1°C 76% 3.0 mph W4.8 kmh W 13.0 mph20.9 kmh 29.90 in1012.5 mb 0.00 in0.0 mm 0.00 in0.0 mm 0.04 in1.0 mm
09:50 PM 21.8°F-5.7°C 15.1°F-9.4°C 75% 12.0 mph NW19.3 kmh NW 13.0 mph20.9 kmh 29.91 in1012.9 mb 0.00 in0.0 mm 0.00 in0.0 mm 0.04 in1.0 mm
09:54 PM 21.6°F-5.8°C 15.2°F-9.3°C 76% 15.0 mph SW24.1 kmh SW 15.0 mph24.1 kmh 29.90 in1012.5 mb 0.00 in0.0 mm 0.00 in0.0 mm 0.04 in1.0 mm
10:00 PM 21.4°F-5.9°C 15.0°F-9.4°C 76% 2.0 mph W3.2 kmh W 13.0 mph20.9 kmh 29.90 in1012.5 mb 0.00 in0.0 mm 0.00 in0.0 mm 0.04 in1.0 mm
10:05 PM 21.2°F-6.0°C 15.1°F-9.4°C 77% 4.0 mph WSW6.4 kmh WSW 10.0 mph16.1 kmh 29.91 in1012.9 mb 0.00 in0.0 mm 0.00 in0.0 mm 0.04 in1.0 mm
10:10 PM 20.9°F-6.2°C 14.8°F-9.6°C 77% 8.0 mph WNW12.9 kmh WNW 15.0 mph24.1 kmh 29.92 in1013.2 mb 0.00 in0.0 mm 0.00 in0.0 mm 0.04 in1.0 mm
10:15 PM 20.7°F-6.3°C 14.6°F-9.7°C 77% 8.0 mph NW12.9 kmh NW 12.0 mph19.3 kmh 29.92 in1013.2 mb 0.00 in0.0 mm 0.00 in0.0 mm 0.04 in1.0 mm
10:20 PM 20.5°F-6.4°C 14.2°F-9.9°C 76% 7.0 mph NW11.3 kmh NW 15.0 mph24.1 kmh 29.93 in1013.5 mb 0.00 in0.0 mm 0.00 in0.0 mm 0.04 in1.0 mm
10:25 PM 20.2°F-6.6°C 13.3°F-10.4°C 74% 11.0 mph WNW17.7 kmh WNW 15.0 mph24.1 kmh 29.93 in1013.5 mb 0.00 in0.0 mm 0.00 in0.0 mm 0.04 in1.0 mm
10:30 PM 19.8°F-6.8°C 12.9°F-10.6°C 74% 7.0 mph W11.3 kmh W 15.0 mph24.1 kmh 29.94 in1013.9 mb 0.00 in0.0 mm 0.00 in0.0 mm 0.04 in1.0 mm
10:35 PM 19.3°F-7.1°C 12.1°F-11.1°C 73% 5.0 mph NW8.0 kmh NW 13.0 mph20.9 kmh 29.94 in1013.9 mb 0.00 in0.0 mm 0.00 in0.0 mm 0.04 in1.0 mm
10:40 PM 18.8°F-7.3°C 11.3°F-11.5°C 72% 4.0 mph WNW6.4 kmh WNW 15.0 mph24.1 kmh 29.95 in1014.2 mb 0.00 in0.0 mm 0.00 in0.0 mm 0.04 in1.0 mm
10:45 PM 18.4°F-7.6°C 10.9°F-11.7°C 72% 7.0 mph NW11.3 kmh NW 15.0 mph24.1 kmh 29.95 in1014.2 mb 0.00 in0.0 mm 0.00 in0.0 mm 0.04 in1.0 mm
10:49 PM 18.2°F-7.7°C 10.4°F-12.0°C 71% 5.0 mph NW8.0 kmh NW 14.0 mph22.5 kmh 29.95 in1014.2 mb 0.00 in0.0 mm 0.00 in0.0 mm 0.04 in1.0 mm
10:55 PM 18.0°F-7.8°C 10.5°F-11.9°C 72% 5.0 mph NW8.0 kmh NW 10.0 mph16.1 kmh 29.95 in1014.2 mb 0.00 in0.0 mm 0.00 in0.0 mm 0.04 in1.0 mm
11:00 PM 17.9°F-7.8°C 10.7°F-11.8°C 73% 9.0 mph NW14.5 kmh NW 11.0 mph17.7 kmh 29.95 in1014.2 mb 0.00 in0.0 mm 0.00 in0.0 mm 0.04 in1.0 mm
11:05 PM 17.9°F-7.8°C 10.4°F-12.0°C 72% 7.0 mph WNW11.3 kmh WNW 11.0 mph17.7 kmh 29.96 in1014.6 mb 0.00 in0.0 mm 0.00 in0.0 mm 0.04 in1.0 mm
11:10 PM 17.9°F-7.8°C 10.7°F-11.8°C 73% 3.0 mph WSW4.8 kmh WSW 11.0 mph17.7 kmh 29.96 in1014.6 mb 0.00 in0.0 mm 0.00 in0.0 mm 0.04 in1.0 mm
11:15 PM 17.8°F-7.9°C 10.6°F-11.9°C 73% 8.0 mph WNW12.9 kmh WNW 14.0 mph22.5 kmh 29.96 in1014.6 mb 0.00 in0.0 mm 0.00 in0.0 mm 0.04 in1.0 mm
11:20 PM 17.8°F-7.9°C 10.9°F-11.7°C 74% 14.0 mph WSW22.5 kmh WSW 14.0 mph22.5 kmh 29.97 in1014.9 mb 0.00 in0.0 mm 0.00 in0.0 mm 0.04 in1.0 mm
11:25 PM 17.7°F-7.9°C 10.8°F-11.8°C 74% 12.0 mph WNW19.3 kmh WNW 14.0 mph22.5 kmh 29.96 in1014.6 mb 0.00 in0.0 mm 0.00 in0.0 mm 0.04 in1.0 mm
11:30 PM 17.7°F-7.9°C 10.5°F-11.9°C 73% 3.0 mph WNW4.8 kmh WNW 11.0 mph17.7 kmh 29.97 in1014.9 mb 0.00 in0.0 mm 0.00 in0.0 mm 0.04 in1.0 mm
11:34 PM 17.7°F-7.9°C 10.5°F-11.9°C 73% 7.0 mph WNW11.3 kmh WNW 15.0 mph24.1 kmh 29.97 in1014.9 mb 0.00 in0.0 mm 0.00 in0.0 mm 0.04 in1.0 mm
11:40 PM 17.6°F-8.0°C 10.4°F-12.0°C 73% 10.0 mph W16.1 kmh W 12.0 mph19.3 kmh 29.97 in1014.9 mb 0.00 in0.0 mm 0.00 in0.0 mm 0.04 in1.0 mm
11:44 PM 17.4°F-8.1°C 9.9°F-12.3°C 72% 6.0 mph W9.7 kmh W 15.0 mph24.1 kmh 29.98 in1015.2 mb 0.00 in0.0 mm 0.00 in0.0 mm 0.04 in1.0 mm
11:50 PM 17.3°F-8.2°C 9.8°F-12.3°C 72% 5.0 mph WNW8.0 kmh WNW 10.0 mph16.1 kmh 29.98 in1015.2 mb 0.00 in0.0 mm 0.00 in0.0 mm 0.04 in1.0 mm
11:55 PM 17.2°F-8.2°C 10.1°F-12.2°C 73% 9.0 mph WNW14.5 kmh WNW 12.0 mph19.3 kmh 29.98 in1015.2 mb 0.00 in0.0 mm 0.00 in0.0 mm 0.04 in1.0 mm